Latest Coastal Weather Observations for Wynyard

IDV60701

Issued at 3:45 am EST Sunday 20 April 2014 (issued every 10 minutes, with the page automatically refreshed every 10 minutes)

About coastal observations | Map of coastal stations | Coastal observations for VIC | Marine services | Other Formats
Station Details ID: 091107 Name: WYNYARD AIRPORT Lat: -41.00 Lon: 145.73 Height: 12.0 m
Data from the previous 72 hours. | See also: Recent months at Wynyard
Date/Time
EST
Temp

°C
Wind Pressure Rain
since 9am
mm
Weather Cloud Vis
km
Sea
Height
m
Swell
Dir
 
Speed
knots
Gust
knots
hPa Trend Height
m
Period
s
Dir
20/03:30am 5.1 WSW 4 5 1013.8 - 0.0 - Partly cloudy 10 - - - -
20/03:00am 4.5 W 5 6 1014.0 - 0.0 - Mostly cloudy 10 - - - -
20/02:30am 4.3 W 5 6 1014.3 - 0.0 - Partly cloudy 10 - - - -
20/02:00am 5.0 W 4 5 1014.5 - 0.0 - Partly cloudy 10 - - - -
20/01:30am 6.2 W 4 5 1015.0 - 0.0 - Cloudy 10 - - - -
20/01:00am 5.4 WSW 5 6 1015.1 - 0.0 - Partly cloudy 10 - - - -
20/12:30am 6.1 SW 5 6 1015.2 - 0.0 - Cloudy 10 - - - -
20/12:00am 4.9 W 5 5 1015.5 - 0.0 - Mostly clear 10 - - - -
 
Date/Time
EST
Temp

°C
Wind Pressure Rain
since 9am
mm
Weather Cloud Vis
km
Sea
Height
m
Swell
Dir
 
Speed
knots
Gust
knots
hPa Trend Height
m
Period
s
Dir
19/11:30pm 6.0 W 4 5 1015.6 - 0.0 - Partly cloudy 10 - - - -
19/11:00pm 6.6 WNW 7 8 1015.8 - 0.0 - Partly cloudy 10 - - - -
19/10:30pm 5.4 WSW 3 5 1016.0 - 0.0 - Partly cloudy 10 - - - -
19/10:00pm 5.2 WSW 4 5 1016.2 - 0.0 - - 10 - - - -
19/09:30pm 6.8 W 4 5 1016.5 - 0.0 - - 10 - - - -
19/09:00pm 5.8 WSW 6 7 1016.6 - 0.0 - Mostly clear 10 - - - -
19/08:30pm 6.0 SW 5 6 1016.7 - 0.0 - Partly cloudy 10 - - - -
19/08:00pm 6.4 SSW 2 4 1016.5 - 0.0 - Partly cloudy 10 - - - -
19/07:30pm 8.1 SW 3 5 1016.5 - 0.0 - Partly cloudy 10 - - - -
19/07:00pm 10.1 W 6 9 1016.5 - 0.0 - Cloudy 10 - - - -
19/06:30pm 10.9 W 5 6 1016.2 - 0.0 - Cloudy 10 - - - -
19/06:00pm 10.9 WSW 5 6 1016.1 - 0.0 - Cloudy 10 - - - -
19/05:30pm 11.8 SW 5 7 1016.0 - 0.0 - Cloudy 10 - - - -
19/05:00pm 12.5 SW 6 9 1016.0 - 0.0 - Partly cloudy 10 - - - -
19/04:30pm 13.5 W 9 13 1016.0 - 0.0 - Partly cloudy 10 - - - -
19/04:00pm 14.2 W 11 23 1016.1 - 0.0 - Cloudy 10 - - - -
19/03:30pm 13.5 WSW 9 13 1016.1 - 0.0 - Cloudy 10 - - - -
19/03:00pm 13.6 WSW 11 15 1016.2 - 0.0 - Cloudy 10 - - - -
19/02:30pm 14.3 W 12 17 1016.0 - 0.0 - Cloudy 10 - - - -
19/02:00pm 13.9 SW 11 16 1016.1 - 0.0 - Cloudy 10 - - - -
19/01:30pm 14.7 WSW 11 19 1016.2 - 0.0 - Cloudy 10 - - - -
19/01:00pm 14.8 WSW 10 13 1016.5 - 0.0 - Cloudy 10 - - - -
19/12:30pm 13.9 WSW 14 18 1016.8 - 0.0 - Cloudy 10 - - - -
19/12:00pm 14.0 WSW 13 18 1017.1 - 0.0 - Mostly cloudy 10 - - - -
19/11:30am 13.9 SW 11 15 1017.4 - 0.0 - Partly cloudy 10 - - - -
19/11:00am 13.7 WSW 12 16 1017.5 - 0.0 - Partly cloudy 10 - - - -
19/10:30am 12.8 WSW 15 19 1017.5 - 0.0 - Partly cloudy 10 - - - -
19/10:00am 13.0 W 10 15 1017.5 - 0.0 - Partly cloudy 10 - - - -
19/09:30am 12.0 WNW 8 11 1017.6 - 0.0 - - 10 - - - -
19/09:00am 11.1 WNW 7 9 1017.7 - 0.6 - Mostly clear 10 - - - -
19/08:30am 9.1 W 5 8 1017.7 - 0.6 - Partly cloudy 10 - - - -
19/08:00am 6.0 W 5 6 1017.5 - 0.6 - - 10 - - - -
19/07:30am 4.2 W 4 5 1017.3 - 0.6 - - 10 - - - -
19/07:00am 3.2 W 5 6 1017.0 - 0.6 - - 10 - - - -
19/06:30am 2.8 W 7 8 1016.8 - 0.6 - - 10 - - - -
19/06:00am 3.9 W 5 5 1016.7 - 0.6 - Partly cloudy 10 - - - -
19/05:30am 3.6 WSW 3 4 1016.7 - 0.6 - - 10 - - - -
19/05:00am 3.8 WSW 3 5 1016.4 - 0.6 - - 9 - - - -
19/04:30am 4.4 W 8 10 1016.2 - 0.6 - Partly cloudy 10 - - - -
19/04:00am 5.0 WSW 7 10 1016.3 - 0.6 - Partly cloudy 10 - - - -
19/03:30am 3.0 WNW 8 9 1016.2 - 0.6 - - 10 - - - -
19/03:00am 5.0 WNW 6 7 1016.2 - 0.6 - - 10 - - - -
19/02:30am 6.5 NW 7 8 1016.4 - 0.6 - - 10 - - - -
19/02:00am 4.8 W 6 7 1016.5 - 0.6 - - 10 - - - -
19/01:30am 4.2 WSW 7 9 1016.6 - 0.6 - - 10 - - - -
19/01:00am 5.1 W 6 7 1016.7 - 0.6 - Partly cloudy 10 - - - -
19/12:30am 5.2 W 6 8 1016.5 - 0.6 - - 10 - - - -
19/12:00am 7.6 WNW 6 8 1016.5 - 0.6 - - 10 - - - -
 
Date/Time
EST
Temp

°C
Wind Pressure Rain
since 9am
mm
Weather Cloud Vis
km
Sea
Height
m
Swell
Dir
 
Speed
knots
Gust
knots
hPa Trend Height
m
Period
s
Dir
18/11:30pm 8.0 WNW 6 8 1016.6 - 0.6 - - 10 - - - -
18/11:00pm 8.6 W 8 11 1016.3 - 0.6 - - 10 - - - -
18/10:30pm 6.9 W 8 9 1016.4 - 0.6 - - 10 - - - -
18/10:00pm 7.4 W 7 8 1016.2 - 0.6 - - 10 - - - -
18/09:30pm 8.6 W 8 9 1015.9 - 0.6 - Partly cloudy 10 - - - -
18/09:00pm 9.5 W 9 11 1015.9 - 0.6 - Cloudy 10 - - - -
18/08:30pm 9.1 WNW 10 11 1015.4 - 0.6 - - 10 - - - -
18/08:00pm 10.1 WNW 8 10 1015.3 - 0.6 - Partly cloudy 10 - - - -
18/07:30pm 10.2 W 9 12 1015.2 - 0.6 - Partly cloudy 10 - - - -
18/07:00pm 10.4 WNW 7 9 1014.9 - 0.6 - Partly cloudy 10 - - - -
18/06:30pm 10.9 W 7 11 1014.5 - 0.6 - - 10 - - - -
18/06:00pm 11.7 W 7 16 1014.0 - 0.6 - Cloudy 10 - - - -
18/05:30pm 12.8 WSW 8 13 1013.5 - 0.6 - Partly cloudy 10 - - - -
18/05:00pm 13.6 WSW 12 16 1012.9 - 0.6 - Partly cloudy 10 - - - -
18/04:30pm 13.7 WSW 14 19 1012.6 - 0.6 - Partly cloudy 10 - - - -
18/04:00pm 15.1 WSW 14 21 1012.0 - 0.6 - Partly cloudy 10 - - - -
18/03:30pm 14.6 WSW 17 29 1011.7 - 0.6 - Partly cloudy 10 - - - -
18/03:00pm 14.4 WSW 21 32 1011.3 - 0.6 - - 10 - - - -
18/02:30pm 15.4 WSW 20 33 1010.9 - 0.6 - Partly cloudy 10 - - - -
18/02:02pm 16.1 WSW 18 28 1010.8 - 0.6 - Partly cloudy 10 - - - -
18/02:00pm 16.8 WSW 18 25 1010.8 - 0.6 - Partly cloudy 10 - - - -
18/01:35pm 15.7 WSW 18 33 1010.5 - 0.6 - Partly cloudy 10 - - - -
18/01:30pm 16.2 SW 18 25 1010.4 - 0.6 - Partly cloudy 10 - - - -
18/01:12pm 17.0 WSW 16 26 1010.1 - 0.6 - Partly cloudy 10 - - - -
18/01:00pm 16.2 SW 18 26 1010.2 - 0.6 - Partly cloudy 10 - - - -
18/12:30pm 15.7 WSW 17 27 1010.3 - 0.6 - Partly cloudy 10 - - - -
18/12:06pm 15.2 WSW 15 25 1010.3 - 0.6 - Partly cloudy 10 - - - -
18/12:00pm 15.5 WSW 12 19 1010.4 - 0.6 - - 10 - - - -
18/11:30am 13.5 WSW 12 17 1010.6 - 0.6 - - 10 - - - -
18/11:00am 12.3 WSW 8 10 1010.5 - 0.6 - Partly cloudy 10 - - - -
18/10:30am 12.3 WNW 7 12 1010.5 - 0.6 - Partly cloudy 10 - - - -
18/10:00am 12.2 SSW 9 13 1010.0 - 0.6 - Partly cloudy 10 - - - -
18/09:30am 12.1 SW 16 24 1010.2 - 0.6 - Partly cloudy 10 - - - -
18/09:03am 12.5 SW 14 18 1010.8 - 0.0 - Partly cloudy 10 - - - -
18/09:00am 12.6 SW 14 23 1010.8 - 2.8 - Cloudy 10 - - - -
18/08:48am 12.7 SW 20 33 1010.6 - 2.8 - Partly cloudy 2 - - - -
18/08:46am 12.7 SW 23 33 1010.6 - 2.6 - Partly cloudy 2 - - - -
18/08:43am 12.8 W 24 33 1010.7 - 2.4 - Partly cloudy 3 - - - -
18/08:30am 14.7 NW 10 14 1010.1 - 0.6 - Partly cloudy 6 - - - -
18/08:16am 14.9 NW 6 9 1010.2 - 0.2 - Partly cloudy 5 - - - -
18/08:00am 15.2 NW 5 7 1010.3 - 0.0 - Partly cloudy 10 - - - -
18/07:30am 15.0 WNW 7 9 1010.4 - 0.0 - Partly cloudy 10 - - - -
18/07:00am 15.0 WNW 8 11 1010.7 - 0.0 - Partly cloudy 10 - - - -
18/06:30am 14.9 WNW 9 12 1010.9 - 0.0 - Cloudy 10 - - - -
18/06:00am 15.1 W 9 11 1011.1 - 0.0 - Cloudy 10 - - - -
18/05:30am 15.4 W 10 13 1011.1 - 0.0 - Partly cloudy 10 - - - -
18/05:00am 15.9 NNW 8 13 1011.2 - 0.0 - Partly cloudy 10 - - - -
18/04:30am 16.2 NNW 8 11 1011.8 - 0.0 - Partly cloudy 10 - - - -
18/04:00am 16.1 NNW 8 11 1012.4 - 0.0 - Partly cloudy 10 - - - -
18/03:30am 15.9 NW 6 12 1012.7 - 0.0 - Partly cloudy 10 - - - -
18/03:00am 13.2 WSW 4 6 1013.1 - 0.0 - Cloudy 10 - - - -
18/02:30am 11.8 SW 3 5 1013.6 - 0.0 - Partly cloudy 8 - - - -
18/02:02am 11.8 W 3 5 1014.1 - 0.0 - Partly cloudy 8 - - - -
18/02:00am 11.8 W 3 5 1014.1 - 0.0 - Partly cloudy 7 - - - -
18/01:36am 11.5 W 2 4 1014.6 - 0.0 - Partly cloudy 5 - - - -
18/01:30am 11.5 W 4 5 1014.7 - 0.0 - Partly cloudy 6 - - - -
18/01:21am 11.7 W 4 7 1014.8 - 0.0 - Partly cloudy 7 - - - -
18/01:08am 11.7 W 3 6 1015.1 - 0.0 - Partly cloudy 5 - - - -
18/01:00am 11.8 W 5 6 1015.2 - 0.0 - Partly cloudy 6 - - - -
18/12:49am 11.8 W 5 6 1015.2 - 0.0 - Partly cloudy 5 - - - -
18/12:30am 12.1 W 4 5 1015.4 - 0.0 - Partly cloudy 7 - - - -
18/12:18am 11.8 WNW 4 6 1015.6 - 0.0 - Partly cloudy 7 - - - -
18/12:00am 11.4 W 5 7 1015.8 - 0.0 - Cloudy 5 - - - -
 
Date/Time
EST
Temp

°C
Wind Pressure Rain
since 9am
mm
Weather Cloud Vis
km
Sea
Height
m
Swell
Dir
 
Speed
knots
Gust
knots
hPa Trend Height
m
Period
s
Dir
17/11:44pm 11.0 WNW 4 5 1015.9 - 0.0 - Partly cloudy 5 - - - -
17/11:30pm 10.6 W 3 4 1016.0 - 0.0 - Partly cloudy 8 - - - -
17/11:28pm 10.7 W 4 4 1016.1 - 0.0 - Partly cloudy 8 - - - -
17/11:11pm 10.1 SW 3 4 1016.3 - 0.0 - Partly cloudy 5 - - - -
17/11:00pm 9.9 W 5 7 1016.5 - 0.0 - Partly cloudy 6 - - - -
17/10:47pm 10.3 WNW 6 7 1016.7 - 0.0 - - 7 - - - -
17/10:30pm 10.2 WSW 4 7 1016.8 - 0.0 - - 4 - - - -
17/10:19pm 10.9 SSW 1 3 1016.7 - 0.0 - Partly cloudy 5 - - - -
17/10:00pm 11.5 CALM 0 3 1017.2 - 0.0 - Cloudy 10 - - - -
17/09:30pm 10.3 W 4 5 1017.6 - 0.0 - Partly cloudy 9 - - - -
17/09:00pm 10.5 SW 5 6 1017.4 - 0.0 - - 7 - - - -
17/08:30pm 12.4 SE 3 4 1017.5 - 0.0 - - 10 - - - -
17/08:00pm 13.7 WSW 2 3 1017.9 - 0.0 - Partly cloudy 10 - - - -
17/07:30pm 14.5 NW 2 7 1017.8 - 0.0 - Partly cloudy 10 - - - -
17/07:00pm 14.9 CALM 0 0 1017.7 - 0.0 - Partly cloudy 10 - - - -
17/06:30pm 14.9 CALM 0 0 1017.8 - 0.0 - Cloudy 10 - - - -
17/06:00pm 16.1 N 3 4 1018.0 - 0.0 - Cloudy 10 - - - -
17/05:30pm 16.4 NNE 5 7 1017.9 - 0.0 - Partly cloudy 10 - - - -
17/05:00pm 16.8 N 6 9 1018.1 - 0.0 - - 10 - - - -
17/04:30pm 17.1 NNE 6 9 1018.0 - 0.0 - Partly cloudy 10 - - - -
17/04:00pm 17.5 NNE 8 11 1018.2 - 0.0 - Partly cloudy 10 - - - -
17/03:30pm 18.1 NNE 9 11 1018.5 - 0.0 - Partly cloudy 10 - - - -
17/03:00pm 18.2 NNE 9 11 1018.7 - 0.0 - - 10 - - - -
17/02:30pm 19.3 NNE 10 13 1018.8 - 0.0 - Partly cloudy 10 - - - -
17/02:00pm 18.7 NNE 10 13 1019.0 - 0.0 - - 10 - - - -
17/01:30pm 18.4 NNE 9 12 1019.2 - 0.0 - Partly cloudy 10 - - - -
17/01:00pm 18.3 NNE 9 12 1019.6 - 0.0 - Partly cloudy 10 - - - -
17/12:30pm 18.5 NE 8 11 1020.0 - 0.0 - Partly cloudy 10 - - - -
17/12:00pm 18.2 NE 8 11 1020.2 - 0.0 - Cloudy 10 - - - -
17/11:30am 17.5 ENE 8 13 1020.4 - 0.0 - Cloudy 10 - - - -
17/11:00am 17.5 E 7 10 1020.7 - 0.0 - Partly cloudy 10 - - - -
17/10:30am 16.5 E 8 12 1020.6 - 0.0 - Partly cloudy 10 - - - -
17/10:00am 17.1 E 11 15 1020.5 - 0.0 - Partly cloudy 10 - - - -
17/09:30am 15.4 E 8 11 1020.5 - 0.0 - Partly cloudy 10 - - - -
17/09:00am 14.1 CALM 0 3 1020.7 - 0.8 - Mostly cloudy 10 - - - -
17/08:30am 13.5 W 3 4 1020.7 - 0.8 - Partly cloudy 9 - - - -
17/08:00am 11.8 W 3 6 1020.7 - 0.8 - Partly cloudy 8 - - - -
17/07:44am 11.3 W 5 6 1020.6 - 0.8 - Partly cloudy 7 - - - -
17/07:30am 10.9 WSW 3 3 1020.4 - 0.8 - Partly cloudy 5 - - - -
17/07:27am 10.9 W 3 3 1020.4 - 0.8 - Partly cloudy 5 - - - -
17/07:20am 11.0 W 3 5 1020.3 - 0.8 - Partly cloudy 6 - - - -
17/07:00am 10.5 WNW 5 5 1020.2 - 0.8 - Cloudy 5 - - - -
17/06:30am 10.4 WNW 4 6 1020.0 - 0.8 - Partly cloudy 5 - - - -
17/06:00am 10.0 W 6 7 1020.1 - 0.8 - Mostly cloudy 5 - - - -
17/05:30am 9.3 WNW 4 5 1020.0 - 0.8 - Partly cloudy 2 - - - -
17/05:00am 7.9 W 6 7 1019.9 - 0.8 - - 0.4 - - - -
17/04:30am 9.5 WNW 4 5 1019.7 - 0.8 - - 3 - - - -
17/04:07am 10.0 W 4 6 1019.6 - 0.8 - Partly cloudy 5 - - - -
17/04:00am 10.9 W 2 3 1019.5 - 0.8 - Partly cloudy 6 - - - -

Other Formats:

Comma delimited format used in spreadsheet applications
http://www.bom.gov.au/fwo/IDV60701/IDV60701.95957.axf

JavaScript Object Notation format (JSON) in row-major order
http://www.bom.gov.au/fwo/IDV60701/IDV60701.95957.json